Warning: Javascript must be enabled to use all the features on this page!


Page Loading - Please Wait...

Click to hideNews Bulletins

Peak Streamflow for the Nation

USGS 04208000 Cuyahoga River at Independence OH

Cuyahoga County, Ohio
Hydrologic Unit Code 04110002
Latitude  41°23'43", Longitude  81°37'48" NAD27
Drainage area 707  square miles
Contributing drainage area 707  square miles
Gage datum 582.66 feet above NAVD88
Output formats
Table
Graph
Tab-separated file
peakfq (watstore) format
Reselect output format
Water
Year
Date Gage
Height
(feet)
Stream-
flow
(cfs)
1922 1922-04-15 11.503 6,910
1923 1923-01-21 11.306 6,810
1928 1927-12-01 17.80 10,600
1929 1929-01-19 18.90 12,300
1930 1930-01-12 15.50 7,900
1931 1931-04-26 10.50 3,810
1932 1932-03-22 13.65 5,860
1933 1932-12-31 15.54 7,900
1934 1934-04-04 14.86 6,760
1935 1935-02-26 13.80 5,990
1936 1936-02-27 16.51 8,600
1940 1940-04-20 18.80 12,200
1941 1940-12-29 14.20 6,620
1942 1942-03-16 16.90 8,970
1943 1942-12-30 16.50 8,600
1944 1944-04-11 15.50 7,750
1945 1945-05-18 17.20 9,240
1946 1946-02-27 12.72 5,430
1947 1947-06-02 19.07 12,700
1948 1948-03-22 16.57 8,700
1949 1949-01-28 12.76 5,500
1950 1950-01-16 18.05 11,000
1951 1950-12-08 15.83 7,990
1952 1952-01-27 18.47 11,300
1953 1953-01-18 11.44 4,480
1954 1954-03-25 16.75 9,360
1955 1954-10-16 20.04 14,300
1956 1956-02-25 16.35 8,890
1957 1957-05-20 16.53 9,000
1958 1958-08-08 15.48 6,730
1959 1959-01-22 22.41 24,800
1960 1959-12-13 15.42 7,860
1961 1961-04-26 18.17 11,800
1962 1962-02-27 13.37 5,960
1963 1963-03-13 14.38 6,830
1964 1964-03-05 18.47 12,300
1965 1965-01-24 14.39 6,830
1966 1966-02-11 15.14 7,720
1967 1967-05-11 12.27 6,370
1968 1968-07-17 14.93 8,630
1969 1969-07-20 18.76 13,600
1970 1970-01-29 12.52 6,570
1971 1971-02-23 13.26 7,160
1972 1972-04-15 15.05 8,750
1973 1973-03-15 13.29 7,180
1974 1974-01-19 15.00 8,700
1975 1975-05-22 17.88 12,200
1976 1976-02-17 20.70 14,000
1977 1977-02-24 14.71 7,970
1978 1977-12-14 20.02 12,900
1979 1979-09-15 22.06 19,700
1980 1979-12-25 16.27 9,120
1981 1981-02-19 17.85 10,6005
1982 1981-12-23 13.38 6,9605
1983 1983-07-02 17.60 10,4005
1984 1984-03-21 16.21 9,0905
1985 1985-03-29 16.20 9,0805
1986 1985-11-05 15.65 8,6305
1987 1987-07-02 17.69 10,5005
1988 1988-03-26 13.14 6,1905
1989 1989-05-26 20.02 14,3005
1990 1990-09-07 20.16 12,2005
1991 1990-12-30 21.77 15,0005
1992 1992-07-31 16.52 8,7805
1993 1992-12-31 18.88 10,8005
1994 1994-08-13 20.64 12,9005
1995 1995-01-16 18.61 10,5005
1996 1996-04-23 17.71 9,6805
1997 1997-06-01 20.45 13,5005
1998 1998-04-17 18.05 9,4505
1999 1999-01-24 13.44 6,4305
2000 2000-04-08 15.69 7,7305
2001 2000-12-17 16.02 7,9105
2002 2002-05-13 13.36 7,1805
2003 2003-07-22 21.12 14,2005
2004 2004-05-22 21.66 15,0005
2005 2005-01-12 19.58 11,9005
2006 2006-06-23 23.29 25,4005
2007 2007-01-06 20.645 12,4002
2008 2008-02-06 20.55 12,3005
2009 2009-03-09 19.27 11,5005
2010 2010-03-14 10.70 5,3505
2011 2011-02-28 22.73 19,4005
2012 2011-12-06 18.32 10,6005
2013 2012-10-30 20.86 13,8005
2014 2013-12-22 18.23 10,5005
2015 2015-06-27 19.51 11,9005
2016 2015-12-27 15.74 8,4205
2017 2017-01-12 18.50 10,7005
2018 2018-04-16 20.89 13,8005
2019 2019-06-21 17.73 10,0005
2020 2020-03-29 21.62 14,7005
2021 2021-07-17 19.20 11,9005
?
  Peak Gage-Height Qualification Codes.
?
  Peak Streamflow Qualification Codes.